sensor_id;sensor_type;location;lat;lon;timestamp;pressure;altitude;pressure_sealevel;temperature;humidity
82562;BME280;72228;51.208;10.468;2023-12-20T00:01:49;98779.34;;;3.84;91.93
82562;BME280;72228;51.208;10.468;2023-12-20T00:04:15;98779.88;;;3.86;92.11
82562;BME280;72228;51.208;10.468;2023-12-20T00:06:41;98774.13;;;3.82;92.26
82562;BME280;72228;51.208;10.468;2023-12-20T00:09:07;98764.53;;;3.80;92.51
82562;BME280;72228;51.208;10.468;2023-12-20T00:11:33;98763.44;;;3.81;92.65
82562;BME280;72228;51.208;10.468;2023-12-20T00:13:58;98766.19;;;3.81;92.60
82562;BME280;72228;51.208;10.468;2023-12-20T00:16:24;98755.78;;;3.78;92.63
82562;BME280;72228;51.208;10.468;2023-12-20T00:18:50;98760.19;;;3.73;93.22
82562;BME280;72228;51.208;10.468;2023-12-20T00:21:16;98757.97;;;3.75;92.96
82562;BME280;72228;51.208;10.468;2023-12-20T00:23:42;98757.97;;;3.75;92.78
82562;BME280;72228;51.208;10.468;2023-12-20T00:26:07;98756.31;;;3.80;92.89
82562;BME280;72228;51.208;10.468;2023-12-20T00:28:33;98765.13;;;3.76;93.05
82562;BME280;72228;51.208;10.468;2023-12-20T00:30:59;98762.38;;;3.76;93.34
82562;BME280;72228;51.208;10.468;2023-12-20T00:33:25;98759.06;;;3.74;93.40
82562;BME280;72228;51.208;10.468;2023-12-20T00:35:51;98764.53;;;3.80;93.52
82562;BME280;72228;51.208;10.468;2023-12-20T00:38:17;98773.31;;;3.82;93.64
82562;BME280;72228;51.208;10.468;2023-12-20T00:40:42;98763.13;;;3.92;92.79
82562;BME280;72228;51.208;10.468;2023-12-20T00:43:08;98759.03;;;3.95;92.75
82562;BME280;72228;51.208;10.468;2023-12-20T00:45:34;98758.47;;;3.93;93.34
82562;BME280;72228;51.208;10.468;2023-12-20T00:48:00;98757.94;;;3.96;93.03
82562;BME280;72228;51.208;10.468;2023-12-20T00:50:26;98755.19;;;3.91;93.14
82562;BME280;72228;51.208;10.468;2023-12-20T00:52:52;98753.25;;;3.96;93.04
82562;BME280;72228;51.208;10.468;2023-12-20T00:55:18;98755.47;;;3.94;92.51
82562;BME280;72228;51.208;10.468;2023-12-20T00:57:43;98749.69;;;3.96;93.31
82562;BME280;72228;51.208;10.468;2023-12-20T01:00:10;98751.34;;;3.97;93.26
82562;BME280;72228;51.208;10.468;2023-12-20T01:02:36;98743.63;;;3.99;92.81
82562;BME280;72228;51.208;10.468;2023-12-20T01:05:02;98742.00;;;3.98;92.72
82562;BME280;72228;51.208;10.468;2023-12-20T01:07:28;98746.66;;;3.97;93.15
82562;BME280;72228;51.208;10.468;2023-12-20T01:09:54;98744.22;;;3.96;92.57
82562;BME280;72228;51.208;10.468;2023-12-20T01:12:20;98745.03;;;3.96;93.04
82562;BME280;72228;51.208;10.468;2023-12-20T01:14:46;98751.88;;;3.99;93.06
82562;BME280;72228;51.208;10.468;2023-12-20T01:17:12;98752.97;;;4.03;92.87
82562;BME280;72228;51.208;10.468;2023-12-20T01:19:38;98732.13;;;4.02;92.70
82562;BME280;72228;51.208;10.468;2023-12-20T01:22:04;98730.19;;;4.02;93.23
82562;BME280;72228;51.208;10.468;2023-12-20T01:24:30;98728.25;;;4.08;92.53
82562;BME280;72228;51.208;10.468;2023-12-20T01:26:55;98724.41;;;4.09;92.14
82562;BME280;72228;51.208;10.468;2023-12-20T01:29:21;98722.22;;;4.06;92.82
82562;BME280;72228;51.208;10.468;2023-12-20T01:31:47;98721.16;;;4.02;92.89
82562;BME280;72228;51.208;10.468;2023-12-20T01:34:13;98727.16;;;4.09;93.08
82562;BME280;72228;51.208;10.468;2023-12-20T01:36:39;98725.22;;;4.10;92.51
82562;BME280;72228;51.208;10.468;2023-12-20T01:39:04;98724.41;;;4.09;92.64
82562;BME280;72228;51.208;10.468;2023-12-20T01:41:30;98733.19;;;4.06;93.01
82562;BME280;72228;51.208;10.468;2023-12-20T01:43:56;98730.97;;;4.13;92.92
82562;BME280;72228;51.208;10.468;2023-12-20T01:46:22;98726.84;;;4.11;93.31
82562;BME280;72228;51.208;10.468;2023-12-20T01:48:48;98719.44;;;4.11;92.67
82562;BME280;72228;51.208;10.468;2023-12-20T01:51:14;98730.44;;;4.11;93.20
82562;BME280;72228;51.208;10.468;2023-12-20T01:53:41;98724.91;;;4.16;92.61
82562;BME280;72228;51.208;10.468;2023-12-20T01:56:08;98725.50;;;4.13;92.91
82562;BME280;72228;51.208;10.468;2023-12-20T01:58:38;98719.69;;;4.20;92.64
82562;BME280;72228;51.208;10.468;2023-12-20T02:01:05;98714.22;;;4.20;92.53
82562;BME280;72228;51.208;10.468;2023-12-20T02:03:30;98717.19;;;4.23;92.52
82562;BME280;72228;51.208;10.468;2023-12-20T02:05:56;98710.59;;;4.24;92.79
82562;BME280;72228;51.208;10.468;2023-12-20T02:08:23;98713.91;;;4.26;92.31
82562;BME280;72228;51.208;10.468;2023-12-20T02:10:48;98712.25;;;4.25;92.42
82562;BME280;72228;51.208;10.468;2023-12-20T02:13:14;98704.88;;;4.21;92.24
82562;BME280;72228;51.208;10.468;2023-12-20T02:15:40;98709.53;;;4.20;92.67
82562;BME280;72228;51.208;10.468;2023-12-20T02:18:09;98697.75;;;4.20;93.09
82562;BME280;72228;51.208;10.468;2023-12-20T02:20:35;98684.28;;;4.18;92.89
82562;BME280;72228;51.208;10.468;2023-12-20T02:23:00;98673.91;;;4.15;92.94
82562;BME280;72228;51.208;10.468;2023-12-20T02:25:26;98681.28;;;4.20;93.17
82562;BME280;72228;51.208;10.468;2023-12-20T02:27:52;98680.47;;;4.19;93.14
82562;BME280;72228;51.208;10.468;2023-12-20T02:30:18;98683.75;;;4.21;93.41
82562;BME280;72228;51.208;10.468;2023-12-20T02:32:44;98682.09;;;4.20;93.03
82562;BME280;72228;51.208;10.468;2023-12-20T02:35:10;98686.22;;;4.18;93.04
82562;BME280;72228;51.208;10.468;2023-12-20T02:37:36;98673.28;;;4.23;93.15
82562;BME280;72228;51.208;10.468;2023-12-20T02:40:02;98679.88;;;4.27;92.74
82562;BME280;72228;51.208;10.468;2023-12-20T02:42:30;98682.09;;;4.20;92.86
82562;BME280;72228;51.208;10.468;2023-12-20T02:44:55;98680.41;;;4.24;93.39
82562;BME280;72228;51.208;10.468;2023-12-20T02:47:21;98682.59;;;4.27;92.98
82562;BME280;72228;51.208;10.468;2023-12-20T02:49:47;98682.03;;;4.30;93.01
82562;BME280;72228;51.208;10.468;2023-12-20T02:52:13;98675.69;;;4.35;93.30
82562;BME280;72228;51.208;10.468;2023-12-20T02:54:38;98685.34;;;4.33;93.13
82562;BME280;72228;51.208;10.468;2023-12-20T02:57:05;98682.59;;;4.33;93.46
82562;BME280;72228;51.208;10.468;2023-12-20T02:59:30;98682.03;;;4.30;93.64
82562;BME280;72228;51.208;10.468;2023-12-20T03:01:56;98680.91;;;4.37;93.80
82562;BME280;72228;51.208;10.468;2023-12-20T03:04:22;98685.84;;;4.40;93.72
82562;BME280;72228;51.208;10.468;2023-12-20T03:06:48;98671.31;;;4.34;93.23
82562;BME280;72228;51.208;10.468;2023-12-20T03:09:14;98676.00;;;4.28;93.71
82562;BME280;72228;51.208;10.468;2023-12-20T03:11:40;98697.16;;;4.28;93.90
82562;BME280;72228;51.208;10.468;2023-12-20T03:14:05;98701.81;;;4.27;94.19
82562;BME280;72228;51.208;10.468;2023-12-20T03:16:31;98693.31;;;4.24;94.22
82562;BME280;72228;51.208;10.468;2023-12-20T03:18:58;98704.56;;;4.27;94.36
82562;BME280;72228;51.208;10.468;2023-12-20T03:21:24;98701.28;;;4.25;94.72
82562;BME280;72228;51.208;10.468;2023-12-20T03:23:50;98706.78;;;4.25;94.72
82562;BME280;72228;51.208;10.468;2023-12-20T03:26:16;98707.84;;;4.29;94.89
82562;BME280;72228;51.208;10.468;2023-12-20T03:28:42;98703.38;;;4.44;94.16
82562;BME280;72228;51.208;10.468;2023-12-20T03:31:09;98712.59;;;4.63;91.55
82562;BME280;72228;51.208;10.468;2023-12-20T03:33:35;98719.19;;;4.62;90.76
82562;BME280;72228;51.208;10.468;2023-12-20T03:36:01;98703.06;;;4.84;88.31
82562;BME280;72228;51.208;10.468;2023-12-20T03:38:27;98691.03;;;4.80;88.38
82562;BME280;72228;51.208;10.468;2023-12-20T03:40:53;98689.09;;;4.86;86.94
82562;BME280;72228;51.208;10.468;2023-12-20T03:43:18;98699.31;;;4.75;88.11
82562;BME280;72228;51.208;10.468;2023-12-20T03:45:45;98691.44;;;4.64;87.97
82562;BME280;72228;51.208;10.468;2023-12-20T03:48:11;98707.41;;;4.56;88.06
82562;BME280;72228;51.208;10.468;2023-12-20T03:50:37;98700.84;;;4.52;88.39
82562;BME280;72228;51.208;10.468;2023-12-20T03:53:03;98692.34;;;4.49;88.11
82562;BME280;72228;51.208;10.468;2023-12-20T03:55:29;98695.72;;;4.36;88.71
82562;BME280;72228;51.208;10.468;2023-12-20T03:57:55;98701.81;;;4.27;89.28
82562;BME280;72228;51.208;10.468;2023-12-20T04:00:21;98707.03;;;4.24;88.98
82562;BME280;72228;51.208;10.468;2023-12-20T04:02:46;98707.09;;;4.19;88.62
82562;BME280;72228;51.208;10.468;2023-12-20T04:05:12;98716.34;;;4.28;88.46
82562;BME280;72228;51.208;10.468;2023-12-20T04:07:38;98712.69;;;4.43;88.18
82562;BME280;72228;51.208;10.468;2023-12-20T04:10:04;98710.25;;;4.41;87.78
82562;BME280;72228;51.208;10.468;2023-12-20T04:12:32;98705.00;;;4.45;87.85
82562;BME280;72228;51.208;10.468;2023-12-20T04:14:58;98703.38;;;4.44;87.70
82562;BME280;72228;51.208;10.468;2023-12-20T04:17:24;98692.97;;;4.41;88.05
82562;BME280;72228;51.208;10.468;2023-12-20T04:19:50;98697.91;;;4.39;87.77
82562;BME280;72228;51.208;10.468;2023-12-20T04:22:19;98692.97;;;4.36;87.51
82562;BME280;72228;51.208;10.468;2023-12-20T04:24:45;98702.28;;;4.40;87.30
82562;BME280;72228;51.208;10.468;2023-12-20T04:27:11;98704.25;;;4.34;88.26
82562;BME280;72228;51.208;10.468;2023-12-20T04:29:37;98695.22;;;4.28;88.28
82562;BME280;72228;51.208;10.468;2023-12-20T04:32:04;98705.97;;;4.25;88.37
82562;BME280;72228;51.208;10.468;2023-12-20T04:34:30;98707.84;;;4.29;88.13
82562;BME280;72228;51.208;10.468;2023-12-20T04:36:55;98703.75;;;4.27;87.98
82562;BME280;72228;51.208;10.468;2023-12-20T04:39:21;98712.19;;;4.36;88.52
82562;BME280;72228;51.208;10.468;2023-12-20T04:41:47;98708.09;;;4.33;87.85
82562;BME280;72228;51.208;10.468;2023-12-20T04:44:13;98710.53;;;4.40;87.69
82562;BME280;72228;51.208;10.468;2023-12-20T04:46:39;98714.41;;;4.34;87.85
82562;BME280;72228;51.208;10.468;2023-12-20T04:49:05;98717.34;;;4.47;87.13
82562;BME280;72228;51.208;10.468;2023-12-20T04:51:34;98701.72;;;4.43;86.44
82562;BME280;72228;51.208;10.468;2023-12-20T04:54:01;98711.00;;;4.52;86.30
82562;BME280;72228;51.208;10.468;2023-12-20T04:56:27;98702.19;;;4.55;85.56
82562;BME280;72228;51.208;10.468;2023-12-20T04:58:53;98705.47;;;4.62;84.88
82562;BME280;72228;51.208;10.468;2023-12-20T05:01:20;98703.22;;;4.69;84.31
82562;BME280;72228;51.208;10.468;2023-12-20T05:03:47;98704.81;;;4.75;83.77
82562;BME280;72228;51.208;10.468;2023-12-20T05:06:13;98709.97;;;4.82;83.03
82562;BME280;72228;51.208;10.468;2023-12-20T05:08:38;98707.03;;;4.73;84.27
82562;BME280;72228;51.208;10.468;2023-12-20T05:11:05;98721.13;;;4.62;84.88
82562;BME280;72228;51.208;10.468;2023-12-20T05:13:30;98717.81;;;4.60;85.11
82562;BME280;72228;51.208;10.468;2023-12-20T05:15:56;98730.13;;;4.67;85.61
82562;BME280;72228;51.208;10.468;2023-12-20T05:18:22;98728.72;;;4.70;84.66
82562;BME280;72228;51.208;10.468;2023-12-20T05:20:50;98739.13;;;4.73;85.16
82562;BME280;72228;51.208;10.468;2023-12-20T05:23:16;98745.47;;;4.73;84.78
82562;BME280;72228;51.208;10.468;2023-12-20T05:25:43;98745.97;;;4.80;84.28
82562;BME280;72228;51.208;10.468;2023-12-20T05:28:08;98737.19;;;4.78;84.81
82562;BME280;72228;51.208;10.468;2023-12-20T05:30:34;98748.72;;;4.80;83.54
82562;BME280;72228;51.208;10.468;2023-12-20T05:33:00;98749.25;;;4.82;83.73
82562;BME280;72228;51.208;10.468;2023-12-20T05:35:26;98745.34;;;4.89;81.73
82562;BME280;72228;51.208;10.468;2023-12-20T05:37:52;98756.31;;;4.94;81.32
82562;BME280;72228;51.208;10.468;2023-12-20T05:40:18;98753.03;;;4.92;80.22
82562;BME280;72228;51.208;10.468;2023-12-20T05:42:43;98756.75;;;5.06;75.95
82562;BME280;72228;51.208;10.468;2023-12-20T05:45:09;98754.03;;;5.06;75.88
82562;BME280;72228;51.208;10.468;2023-12-20T05:47:36;98758.44;;;5.02;76.59
82562;BME280;72228;51.208;10.468;2023-12-20T05:50:02;98749.69;;;4.95;77.11
82562;BME280;72228;51.208;10.468;2023-12-20T05:52:28;98758.75;;;4.95;75.69
82562;BME280;72228;51.208;10.468;2023-12-20T05:54:54;98735.81;;;4.81;76.32
82562;BME280;72228;51.208;10.468;2023-12-20T05:57:21;98743.78;;;4.77;75.17
82562;BME280;72228;51.208;10.468;2023-12-20T05:59:47;98742.50;;;4.65;76.87
82562;BME280;72228;51.208;10.468;2023-12-20T06:02:13;98746.66;;;4.57;76.39
82562;BME280;72228;51.208;10.468;2023-12-20T06:04:42;98740.19;;;4.38;76.97
82562;BME280;72228;51.208;10.468;2023-12-20T06:07:11;98747.25;;;4.49;76.66
82562;BME280;72228;51.208;10.468;2023-12-20T06:09:37;98748.94;;;4.45;77.03
82562;BME280;72228;51.208;10.468;2023-12-20T06:12:03;98753.13;;;4.27;78.22
82562;BME280;72228;51.208;10.468;2023-12-20T06:14:29;98752.34;;;4.16;78.14
82562;BME280;72228;51.208;10.468;2023-12-20T06:16:57;98755.69;;;4.08;78.44
82562;BME280;72228;51.208;10.468;2023-12-20T06:19:23;98754.88;;;4.02;79.21
82562;BME280;72228;51.208;10.468;2023-12-20T06:21:48;98748.53;;;4.12;79.04
82562;BME280;72228;51.208;10.468;2023-12-20T06:24:14;98756.75;;;4.12;79.04
82562;BME280;72228;51.208;10.468;2023-12-20T06:26:40;98758.38;;;4.18;78.46
82562;BME280;72228;51.208;10.468;2023-12-20T06:29:06;98762.78;;;4.14;78.62
82562;BME280;72228;51.208;10.468;2023-12-20T06:31:32;98762.53;;;4.06;79.32
82562;BME280;72228;51.208;10.468;2023-12-20T06:33:59;98752.97;;;3.98;79.96
82562;BME280;72228;51.208;10.468;2023-12-20T06:36:26;98768.91;;;3.96;80.40
82562;BME280;72228;51.208;10.468;2023-12-20T06:38:52;98762.84;;;3.94;80.32
82562;BME280;72228;51.208;10.468;2023-12-20T06:41:18;98762.31;;;3.92;81.16
82562;BME280;72228;51.208;10.468;2023-12-20T06:43:44;98767.19;;;4.10;80.61
82562;BME280;72228;51.208;10.468;2023-12-20T06:46:10;98754.28;;;4.16;79.79
82562;BME280;72228;51.208;10.468;2023-12-20T06:48:36;98755.91;;;4.17;80.08
82562;BME280;72228;51.208;10.468;2023-12-20T06:51:02;98753.75;;;4.14;80.29
82562;BME280;72228;51.208;10.468;2023-12-20T06:53:28;98743.59;;;4.09;81.05
82562;BME280;72228;51.208;10.468;2023-12-20T06:55:54;98753.50;;;4.05;81.29
82562;BME280;72228;51.208;10.468;2023-12-20T06:58:22;98752.94;;;4.13;80.72
82562;BME280;72228;51.208;10.468;2023-12-20T07:00:49;98747.97;;;4.15;80.23
82562;BME280;72228;51.208;10.468;2023-12-20T07:03:14;98758.94;;;4.20;80.69
82562;BME280;72228;51.208;10.468;2023-12-20T07:05:40;98763.59;;;4.20;80.59
82562;BME280;72228;51.208;10.468;2023-12-20T07:08:06;98754.50;;;4.24;80.59
82562;BME280;72228;51.208;10.468;2023-12-20T07:10:32;98756.72;;;4.17;81.24
82562;BME280;72228;51.208;10.468;2023-12-20T07:12:58;98750.44;;;4.17;81.58
82562;BME280;72228;51.208;10.468;2023-12-20T07:15:24;98756.19;;;4.15;81.37
82562;BME280;72228;51.208;10.468;2023-12-20T07:17:50;98765.53;;;4.14;81.08
82562;BME280;72228;51.208;10.468;2023-12-20T07:20:16;98763.91;;;4.13;81.98
82562;BME280;72228;51.208;10.468;2023-12-20T07:22:42;98761.13;;;4.18;81.89
82562;BME280;72228;51.208;10.468;2023-12-20T07:25:08;98760.06;;;4.14;81.82
82562;BME280;72228;51.208;10.468;2023-12-20T07:27:34;98773.22;;;4.12;82.36
82562;BME280;72228;51.208;10.468;2023-12-20T07:29:59;98774.31;;;4.16;81.79
82562;BME280;72228;51.208;10.468;2023-12-20T07:32:26;98771.28;;;4.18;81.93
82562;BME280;72228;51.208;10.468;2023-12-20T07:34:52;98775.94;;;4.17;81.84
82562;BME280;72228;51.208;10.468;2023-12-20T07:37:19;98775.09;;;4.27;81.07
82562;BME280;72228;51.208;10.468;2023-12-20T07:39:45;98766.03;;;4.32;80.90
82562;BME280;72228;51.208;10.468;2023-12-20T07:42:11;98769.28;;;4.34;80.31
82562;BME280;72228;51.208;10.468;2023-12-20T07:44:37;98768.47;;;4.33;79.91
82562;BME280;72228;51.208;10.468;2023-12-20T07:47:03;98763.28;;;4.32;81.01
82562;BME280;72228;51.208;10.468;2023-12-20T07:49:30;98769.59;;;4.27;80.34
82562;BME280;72228;51.208;10.468;2023-12-20T07:51:56;98774.28;;;4.26;79.47
82562;BME280;72228;51.208;10.468;2023-12-20T07:54:21;98769.25;;;4.44;79.58
82562;BME280;72228;51.208;10.468;2023-12-20T07:56:48;98778.84;;;4.46;79.60
82562;BME280;72228;51.208;10.468;2023-12-20T07:59:14;98783.78;;;4.49;80.11
82562;BME280;72228;51.208;10.468;2023-12-20T08:01:40;98793.91;;;4.49;80.25
82562;BME280;72228;51.208;10.468;2023-12-20T08:04:07;98779.09;;;4.50;80.09
82562;BME280;72228;51.208;10.468;2023-12-20T08:06:33;98786.25;;;4.46;80.58
82562;BME280;72228;51.208;10.468;2023-12-20T08:08:59;98781.28;;;4.53;80.34
82562;BME280;72228;51.208;10.468;2023-12-20T08:11:25;98785.91;;;4.57;80.50
82562;BME280;72228;51.208;10.468;2023-12-20T08:13:51;98784.53;;;4.60;80.48
82562;BME280;72228;51.208;10.468;2023-12-20T08:16:17;98793.84;;;4.64;79.36
82562;BME280;72228;51.208;10.468;2023-12-20T08:18:43;98795.75;;;4.69;78.89
82562;BME280;72228;51.208;10.468;2023-12-20T08:21:09;98790.00;;;4.65;79.65
82562;BME280;72228;51.208;10.468;2023-12-20T08:23:35;98786.44;;;4.60;80.63
82562;BME280;72228;51.208;10.468;2023-12-20T08:26:07;98790.31;;;4.53;80.58
82562;BME280;72228;51.208;10.468;2023-12-20T08:28:34;98786.53;;;4.49;80.34
82562;BME280;72228;51.208;10.468;2023-12-20T08:31:00;98786.53;;;4.44;80.88
82562;BME280;72228;51.208;10.468;2023-12-20T08:33:26;98786.25;;;4.46;80.69
82562;BME280;72228;51.208;10.468;2023-12-20T08:35:52;98790.09;;;4.50;80.60
82562;BME280;72228;51.208;10.468;2023-12-20T08:38:18;98796.94;;;4.47;80.86
82562;BME280;72228;51.208;10.468;2023-12-20T08:40:44;98797.75;;;4.48;81.22
82562;BME280;72228;51.208;10.468;2023-12-20T08:43:10;98793.13;;;4.43;81.82
82562;BME280;72228;51.208;10.468;2023-12-20T08:45:38;98797.78;;;4.43;82.16
82562;BME280;72228;51.208;10.468;2023-12-20T08:48:05;98809.34;;;4.40;82.60
82562;BME280;72228;51.208;10.468;2023-12-20T08:50:31;98808.81;;;4.38;82.81
82562;BME280;72228;51.208;10.468;2023-12-20T08:52:57;98808.50;;;4.44;81.26
82562;BME280;72228;51.208;10.468;2023-12-20T08:55:23;98793.38;;;4.47;81.66
82562;BME280;72228;51.208;10.468;2023-12-20T08:57:48;98790.09;;;4.50;82.15
82562;BME280;72228;51.208;10.468;2023-12-20T09:00:15;98797.22;;;4.51;82.48
82562;BME280;72228;51.208;10.468;2023-12-20T09:02:41;98793.88;;;4.59;82.12
82562;BME280;72228;51.208;10.468;2023-12-20T09:05:07;98791.41;;;4.57;81.83
82562;BME280;72228;51.208;10.468;2023-12-20T09:07:34;98793.88;;;4.59;81.43
82562;BME280;72228;51.208;10.468;2023-12-20T09:10:00;98786.13;;;4.66;80.85
82562;BME280;72228;51.208;10.468;2023-12-20T09:12:26;98789.97;;;4.70;80.90
82562;BME280;72228;51.208;10.468;2023-12-20T09:14:53;98783.38;;;4.71;81.20
82562;BME280;72228;51.208;10.468;2023-12-20T09:17:18;98786.94;;;4.72;82.09
82562;BME280;72228;51.208;10.468;2023-12-20T09:19:45;98783.06;;;4.73;82.35
82562;BME280;72228;51.208;10.468;2023-12-20T09:22:11;98791.06;;;4.74;81.44
82562;BME280;72228;51.208;10.468;2023-12-20T09:24:38;98779.47;;;4.77;81.41
82562;BME280;72228;51.208;10.468;2023-12-20T09:27:05;98775.38;;;4.75;80.43
82562;BME280;72228;51.208;10.468;2023-12-20T09:29:31;98789.13;;;4.75;81.09
82562;BME280;72228;51.208;10.468;2023-12-20T09:31:57;98781.69;;;4.75;80.64
82562;BME280;72228;51.208;10.468;2023-12-20T09:34:23;98777.28;;;4.79;80.56
82562;BME280;72228;51.208;10.468;2023-12-20T09:36:49;98790.16;;;4.79;81.16
82562;BME280;72228;51.208;10.468;2023-12-20T09:39:17;98778.91;;;4.86;79.90
82562;BME280;72228;51.208;10.468;2023-12-20T09:44:22;98787.06;;;4.96;78.39
82562;BME280;72228;51.208;10.468;2023-12-20T09:46:50;98784.28;;;5.01;79.62
82562;BME280;72228;51.208;10.468;2023-12-20T09:49:19;98794.47;;;4.95;79.45
82562;BME280;72228;51.208;10.468;2023-12-20T09:51:50;98782.16;;;4.93;79.56
82562;BME280;72228;51.208;10.468;2023-12-20T09:54:17;98781.00;;;4.99;79.77
82562;BME280;72228;51.208;10.468;2023-12-20T09:56:44;98764.72;;;5.07;78.96
82562;BME280;72228;51.208;10.468;2023-12-20T09:59:10;98773.22;;;5.11;79.11
82562;BME280;72228;51.208;10.468;2023-12-20T10:01:38;98762.47;;;5.15;79.11
82562;BME280;72228;51.208;10.468;2023-12-20T10:04:06;98761.56;;;5.24;78.11
82562;BME280;72228;51.208;10.468;2023-12-20T10:06:36;98762.09;;;5.26;77.86
82562;BME280;72228;51.208;10.468;2023-12-20T10:09:02;98759.00;;;5.33;78.35
82562;BME280;72228;51.208;10.468;2023-12-20T10:11:28;98749.09;;;5.37;78.50
82562;BME280;72228;51.208;10.468;2023-12-20T10:13:59;98749.09;;;5.37;78.24
82562;BME280;72228;51.208;10.468;2023-12-20T10:16:27;98747.66;;;5.39;77.39
82562;BME280;72228;51.208;10.468;2023-12-20T10:18:54;98741.69;;;5.32;78.06
82562;BME280;72228;51.208;10.468;2023-12-20T10:21:20;98726.28;;;5.36;78.26
82562;BME280;72228;51.208;10.468;2023-12-20T10:23:46;98727.00;;;5.47;77.62
82562;BME280;72228;51.208;10.468;2023-12-20T10:28:53;98726.66;;;6.07;76.30
82562;BME280;72228;51.208;10.468;2023-12-20T10:31:38;98722.53;;;6.28;75.63
82562;BME280;72228;51.208;10.468;2023-12-20T10:34:08;98716.38;;;6.55;74.07
82562;BME280;72228;51.208;10.468;2023-12-20T10:36:34;98709.97;;;6.60;74.16
82562;BME280;72228;51.208;10.468;2023-12-20T10:39:02;98713.63;;;6.55;74.20
82562;BME280;72228;51.208;10.468;2023-12-20T10:41:30;98707.28;;;6.92;73.22
82562;BME280;72228;51.208;10.468;2023-12-20T10:44:01;98712.19;;;6.95;72.59
82562;BME280;72228;51.208;10.468;2023-12-20T10:46:28;98700.72;;;7.21;71.81
82562;BME280;72228;51.208;10.468;2023-12-20T10:48:56;98694.47;;;7.15;73.03
82562;BME280;72228;51.208;10.468;2023-12-20T10:51:23;98712.56;;;6.89;72.12
82562;BME280;72228;51.208;10.468;2023-12-20T10:53:52;98701.31;;;6.66;73.64
82562;BME280;72228;51.208;10.468;2023-12-20T10:56:19;98712.63;;;6.27;75.04
82562;BME280;72228;51.208;10.468;2023-12-20T10:58:46;98691.03;;;6.15;74.85
82562;BME280;72228;51.208;10.468;2023-12-20T11:01:14;98700.09;;;6.16;75.49
82562;BME280;72228;51.208;10.468;2023-12-20T11:03:53;98699.66;;;6.09;75.39
82562;BME280;72228;51.208;10.468;2023-12-20T11:09:24;98699.56;;;5.95;75.87
82562;BME280;72228;51.208;10.468;2023-12-20T11:11:59;98704.25;;;5.95;76.17
82562;BME280;72228;51.208;10.468;2023-12-20T11:17:10;98705.88;;;5.96;75.61
82562;BME280;72228;51.208;10.468;2023-12-20T11:22:30;98683.06;;;5.95;74.88
82562;BME280;72228;51.208;10.468;2023-12-20T11:25:05;98683.56;;;5.97;76.26
82562;BME280;72228;51.208;10.468;2023-12-20T11:27:34;98685.38;;;6.07;75.50
82562;BME280;72228;51.208;10.468;2023-12-20T11:30:03;98682.31;;;6.08;75.29
82562;BME280;72228;51.208;10.468;2023-12-20T11:32:34;98684.19;;;6.13;75.35
82562;BME280;72228;51.208;10.468;2023-12-20T11:37:40;98678.75;;;6.08;75.85
82562;BME280;72228;51.208;10.468;2023-12-20T11:40:14;98680.50;;;5.99;75.04
82562;BME280;72228;51.208;10.468;2023-12-20T11:42:41;98674.38;;;6.07;75.20
82562;BME280;72228;51.208;10.468;2023-12-20T11:45:15;98676.00;;;6.08;74.57
82562;BME280;72228;51.208;10.468;2023-12-20T11:47:43;98669.81;;;5.97;75.25
82562;BME280;72228;51.208;10.468;2023-12-20T11:50:11;98677.19;;;6.02;75.21
82562;BME280;72228;51.208;10.468;2023-12-20T11:52:36;98676.66;;;6.00;75.11
82562;BME280;72228;51.208;10.468;2023-12-20T11:55:03;98672.50;;;6.02;74.79
82562;BME280;72228;51.208;10.468;2023-12-20T11:57:30;98655.75;;;5.99;75.27
82562;BME280;72228;51.208;10.468;2023-12-20T11:59:57;98646.38;;;6.00;75.07
82562;BME280;72228;51.208;10.468;2023-12-20T12:02:23;98656.00;;;6.02;75.26
82562;BME280;72228;51.208;10.468;2023-12-20T12:04:49;98650.50;;;6.02;75.20
82562;BME280;72228;51.208;10.468;2023-12-20T12:07:19;98630.91;;;6.04;76.03
82562;BME280;72228;51.208;10.468;2023-12-20T12:09:45;98635.97;;;5.97;76.06
82562;BME280;72228;51.208;10.468;2023-12-20T12:12:12;98627.41;;;5.98;75.10
82562;BME280;72228;51.208;10.468;2023-12-20T12:14:39;98626.97;;;6.10;75.30
82562;BME280;72228;51.208;10.468;2023-12-20T12:17:15;98622.53;;;6.14;75.67
82562;BME280;72228;51.208;10.468;2023-12-20T12:19:42;98607.13;;;6.13;74.99
82562;BME280;72228;51.208;10.468;2023-12-20T12:22:13;98612.09;;;6.11;75.32
82562;BME280;72228;51.208;10.468;2023-12-20T12:24:40;98604.91;;;6.15;75.53
82562;BME280;72228;51.208;10.468;2023-12-20T12:27:07;98606.59;;;6.11;74.68
82562;BME280;72228;51.208;10.468;2023-12-20T12:29:34;98592.41;;;6.04;75.86
82562;BME280;72228;51.208;10.468;2023-12-20T12:32:00;98580.28;;;6.05;75.42
82562;BME280;72228;51.208;10.468;2023-12-20T12:34:29;98573.19;;;5.99;75.90
82562;BME280;72228;51.208;10.468;2023-12-20T12:36:56;98586.44;;;5.97;75.66
82562;BME280;72228;51.208;10.468;2023-12-20T12:39:23;98577.06;;;5.98;76.47
82562;BME280;72228;51.208;10.468;2023-12-20T12:41:51;98568.91;;;5.87;77.17
82562;BME280;72228;51.208;10.468;2023-12-20T12:44:17;98555.09;;;5.74;78.24
82562;BME280;72228;51.208;10.468;2023-12-20T12:46:46;98557.47;;;5.61;80.28
82562;BME280;72228;51.208;10.468;2023-12-20T12:49:15;98557.53;;;5.56;80.74
82562;BME280;72228;51.208;10.468;2023-12-20T12:51:41;98550.16;;;5.52;80.45
82562;BME280;72228;51.208;10.468;2023-12-20T12:54:06;98559.44;;;5.56;79.91
82562;BME280;72228;51.208;10.468;2023-12-20T12:56:33;98547.94;;;5.54;79.38
82562;BME280;72228;51.208;10.468;2023-12-20T12:58:58;98542.13;;;5.55;78.83
82562;BME280;72228;51.208;10.468;2023-12-20T13:01:24;98528.91;;;5.57;78.93
82562;BME280;72228;51.208;10.468;2023-12-20T13:03:50;98538.16;;;5.67;78.73
82562;BME280;72228;51.208;10.468;2023-12-20T13:06:16;98537.09;;;5.62;78.99
82562;BME280;72228;51.208;10.468;2023-12-20T13:08:43;98534.03;;;5.64;80.39
82562;BME280;72228;51.208;10.468;2023-12-20T13:11:10;98532.41;;;5.63;81.09
82562;BME280;72228;51.208;10.468;2023-12-20T13:13:35;98535.81;;;5.55;81.63